Les vidéos Equidia

Discipline Date Nom de la Course Hippodrome Alloc Jockey/Driver Red. Km Dist Corde Ferrure Autostart Class Video
Attelé 2018-07-23 BIJOU CONTEMPO. CAGNES-SUR-MER 10.000 euros Y.A. BRIAND 2925 G Non partant
Attelé 2018-07-06 SEVAL TP CHAZEL FEURS 24.000 euros R. FONZO 1'16"40 2850 G 09
Attelé 2018-06-24 CAVE DE CAROMB BOLLENE(La Levade) 20.000 euros S. STEFANO 2800 D
Attelé 2018-05-27 BEL AIR SALON-DE-PROVENCE 23.000 euros P. REPICHET 1'16"80 2950 D 11
Attelé 2017-12-31 F.DE BLANCHETTI CAGNES-SUR-MER 35.000 S. STEFANO 1'16"20 2925 G 10
Attelé 2017-12-02 F-R.LE VEXIER MARSEILLE PONT DE VIVAUX 22.000 Y.A. BRIAND 1'16"70 2650 G 04
Attelé 2017-11-08 LA PROVENCE MARSEILLE PONT DE VIVAUX 22.000 D. BEKAERT 2650 G 05
Attelé 2017-10-19 BARCELONETTE MARSEILLE-BORELY 22.000 K. DEVIENNE 2300 G A 11
Attelé 2017-09-04 LAMBERT-LAMBERT FEURS 24.000 G. GELORMINI 1'16"40 2850 G 09
Attelé 2017-08-25 L'AMIRAL MAUZUN CAGNES-SUR-MER 30.000 K. DEVIENNE 1'16"60 2700 G A 09
Attelé 2017-07-04 HARAS FLEURIEL MARSEILLE-BORELY 22.000 S. STEFANO 1'15"40 2300 G A 05
Attelé 2017-06-09 BEAUSSET MARSEILLE PONT DE VIVAUX 18.000 Y.A. BRIAND 1'16"70 2650 G 01
Attelé 2017-05-25 CAVE TERRA-VENT AVIGNON 20.000 Y.A. BRIAND 1'17"40 2650 G 01
Attelé 2017-05-14 G.P. D'AVIGNON AVIGNON 32.000 J. GUELPA 1'22"10 2650 G 15
Attelé 2017-04-12 LUYNES MARSEILLE-BORELY 17.000 D. BEKAERT 1'15"10 2300 G A 01
Attelé 2017-03-31 LUCIA PARIS-VINCENNES 52.000 E. RAFFIN 1'14"80 2850 G 02
Attelé 2017-03-14 DU DAUPHINE CAGNES-SUR-MER 24.000 G. GELORMINI 1'16"00 2700 G A 03
Attelé 2017-03-03 GOTEBORG CAGNES-SUR-MER 20.000 K. DEVIENNE 1'13"30 2150 G A 01
Attelé 2017-01-23 ANGERS MARSEILLE PONT DE VIVAUX 19.000 G. GELORMINI 1'16"60 2650 G 01
Attelé 2017-01-15 ROGER CERAN-M. CAGNES-SUR-MER 8.000 MLLE S. BLANCHETIERE 1'16"30 2925 G 02
Attelé 2016-12-07 RATONNEAU MARSEILLE-BORELY 15.000 S. STEFANO 1'16"00 3000 G 01
Attelé 2016-11-16 AURIOL MARSEILLE-BORELY 18.000 S. STEFANO 1'17"00 3000 G 04
Attelé 2016-11-01 DES APPRENTIS LYON LA SOIE 22.000 P. REPICHET 2700 D AI
Attelé 2016-10-12 L'ORNE MARSEILLE-BORELY 14.000 D. BEKAERT 3000 G 03
Attelé 2016-09-11 M.CHARRETIER CARPENTRAS 23.000 D. BEKAERT 1'21"80 2650 D 01
Attelé 2016-08-20 MONT TENIBRE CAGNES-SUR-MER 18.000 K. DEVIENNE 2950 G DX
Attelé 2016-08-07 R. CREMIEUX CARPENTRAS 26.000 D. BEKAERT 1'20"00 2650 D 01
Attelé 2016-08-01 TROENES CAGNES-SUR-MER 22.000 K. DEVIENNE 2925 G AI
Attelé 2016-07-08 THOLONET MARSEILLE PONT DE VIVAUX 18.000 J.M. ROUBAUD 1'17"40 2650 G 06
Attelé 2016-05-08 MULSANNE DU MANS 17.000 M. COIGNARD 2950 G AI
Attelé 2016-04-03 COQUAINVILLIERS LISIEUX 21.000 MLLE A. DOYERE 1'20"30 2725 D 11
Monté 2015-08-28 NEMESIAS CABOURG 20.000 M. KONDRITZ 1'23"30 2850 D 09
Attelé 2015-07-26 AUBERT DIEPPE 15.000 Y. LEBOURGEOIS 2550 D AI
Attelé 2015-07-13 REVE BEYLEV - B CLAIREFONTAINE 18.000 Y. LEBOURGEOIS 1'20"30 2900 D 02
Monté 2015-07-01 BRUYERES CARRE LISIEUX 22.000 Y. LEBOURGEOIS 1'20"00 2725 D 06
Attelé 2015-06-06 ROGER CERAN-B ARGENTAN 16.000 L. PESCHET 1'18"40 2875 D 09
Attelé 2015-05-24 OYONNAX ANGERS EVENTARD 21.000 MLLE A. DOYERE 1'18"50 3125 D 07
Attelé 2014-12-22 ARISTOLOCHES CABOURG 28000 L. PESCHET 2850
Attelé 2014-12-07 INTERMARCHE - C VIRE 17000 L. PESCHET 2800
Attelé 2014-11-30 B. DE LOMAGNE-B GRAIGNES 15.000 B. HIVER 2700 AI
Attelé 2014-11-09 ALL ROAD CONCE ARGENTAN 20.000 L. PESCHET 1'18"50 2875 02
Attelé 2014-10-19 VOIX BOCAGE - B GRAIGNES 15.000 L. PESCHET 2700
Monté 2014-09-19 VICTOR HUNGER-A CABOURG 20.000 MLLE L. BALAYN 1'17"40 2850 03
Attelé 2014-05-02 HIGH ECHELON LAVAL 18.000 L. PESCHET 2875
Attelé 2014-04-21 PRESSE MANCHE CHERBOURG 22.000 L. PESCHET 2625 AI
Attelé 2014-03-09 JEAN MARY - A MAUQUENCHY 14.000 S. ERNAULT 2850
Attelé 2014-02-02 21 LA MANCHE -A CHERBOURG 12.000 S. ERNAULT 1'18"20 2625 01
Attelé 2014-01-12 FLORESTAN - A ARGENTAN 15.000 L. PESCHET 2150 A AI